createdAt,value
2017-09-19T00:00:52.538Z,1025.71
2017-09-19T00:01:53.176Z,1025.75
2017-09-19T00:02:53.811Z,1025.77
2017-09-19T00:03:54.449Z,1025.71
2017-09-19T00:04:55.095Z,1025.81
2017-09-19T00:05:56.021Z,1025.79
2017-09-19T00:06:56.664Z,1025.80
2017-09-19T00:07:57.296Z,1025.82
2017-09-19T00:08:57.936Z,1025.80
2017-09-19T00:09:58.574Z,1025.86
2017-09-19T00:10:59.205Z,1025.86
2017-09-19T00:11:59.847Z,1025.87
2017-09-19T00:13:00.478Z,1025.87
2017-09-19T00:14:01.316Z,1025.89
2017-09-19T00:15:01.951Z,1025.86
2017-09-19T00:16:02.585Z,1025.87
2017-09-19T00:17:03.221Z,1025.87
2017-09-19T00:18:03.854Z,1025.83
2017-09-19T00:19:04.491Z,1025.80
2017-09-19T00:20:05.125Z,1025.84
2017-09-19T00:21:05.761Z,1025.78
2017-09-19T00:22:06.396Z,1025.83
2017-09-19T00:23:07.231Z,1025.77
2017-09-19T00:24:07.872Z,1025.78
2017-09-19T00:25:08.505Z,1025.81
2017-09-19T00:26:09.137Z,1025.79
2017-09-19T00:27:09.773Z,1025.88
2017-09-19T00:28:10.407Z,1025.84
2017-09-19T00:29:11.042Z,1025.81
2017-09-19T00:30:11.675Z,1025.83
2017-09-19T00:31:12.516Z,1025.83
2017-09-19T00:32:13.149Z,1025.87
2017-09-19T00:33:13.784Z,1025.92
2017-09-19T00:34:14.430Z,1025.78
2017-09-19T00:35:15.070Z,1025.92
2017-09-19T00:36:15.710Z,1025.89
2017-09-19T00:37:16.345Z,1025.90
2017-09-19T00:38:16.987Z,1025.98
2017-09-19T00:39:17.816Z,1026.01
2017-09-19T00:40:18.457Z,1025.91
2017-09-19T00:41:19.094Z,1025.91
2017-09-19T00:42:19.730Z,1025.99
2017-09-19T00:43:20.373Z,1026.04
2017-09-19T00:44:21.063Z,1026.04
2017-09-19T00:45:21.695Z,1026.03
2017-09-19T00:46:22.329Z,1026.02
2017-09-19T00:47:23.163Z,1026.03
2017-09-19T00:48:23.810Z,1026.01
2017-09-19T00:49:24.436Z,1026.00
2017-09-19T00:50:25.067Z,1026.07
2017-09-19T00:51:25.703Z,1026.08
2017-09-19T00:52:26.339Z,1026.10
2017-09-19T00:53:26.977Z,1026.11
2017-09-19T00:54:27.611Z,1026.04
2017-09-19T00:55:28.255Z,1026.04
2017-09-19T00:56:29.245Z,1026.06
2017-09-19T00:57:29.880Z,1025.99
2017-09-19T00:58:30.513Z,1026.06
2017-09-19T00:59:31.153Z,1026.08
2017-09-19T01:00:31.790Z,1026.01
2017-09-19T01:01:32.425Z,1026.04
2017-09-19T01:02:33.058Z,1026.00
2017-09-19T01:03:33.691Z,1026.06
2017-09-19T01:04:34.633Z,1026.08
2017-09-19T01:05:35.266Z,1026.11
2017-09-19T01:06:35.900Z,1026.06
2017-09-19T01:07:36.542Z,1026.13
2017-09-19T01:08:37.178Z,1025.95
2017-09-19T01:09:37.817Z,1026.05
2017-09-19T01:10:38.449Z,1025.98
2017-09-19T01:11:39.084Z,1026.04
2017-09-19T01:12:39.869Z,1026.13
2017-09-19T01:13:40.509Z,1026.04
2017-09-19T01:14:41.141Z,1025.93
2017-09-19T01:15:41.777Z,1025.92
2017-09-19T01:16:42.418Z,1025.89
2017-09-19T01:17:43.053Z,1025.95
2017-09-19T01:18:43.692Z,1025.93
2017-09-19T01:19:44.328Z,1025.98
2017-09-19T01:20:45.166Z,1025.89
2017-09-19T01:21:45.804Z,1025.93
2017-09-19T01:22:46.435Z,1025.88
2017-09-19T01:23:47.072Z,1025.86
2017-09-19T01:24:47.714Z,1025.90
2017-09-19T01:25:48.347Z,1025.92
2017-09-19T01:26:48.980Z,1025.88
2017-09-19T01:27:49.616Z,1025.88
2017-09-19T01:28:50.451Z,1025.84
2017-09-19T01:29:51.090Z,1025.83
2017-09-19T01:30:51.723Z,1025.79
2017-09-19T01:31:52.365Z,1025.70
2017-09-19T01:32:53.002Z,1025.80
2017-09-19T01:33:53.632Z,1025.78
2017-09-19T01:34:54.267Z,1025.81
2017-09-19T01:35:54.909Z,1025.81
2017-09-19T01:36:55.540Z,1025.80
2017-09-19T01:37:56.430Z,1025.74
2017-09-19T01:38:57.074Z,1025.81
2017-09-19T01:39:57.714Z,1025.74
2017-09-19T01:40:58.349Z,1025.80
2017-09-19T01:41:58.980Z,1025.79
2017-09-19T01:42:59.626Z,1025.68
2017-09-19T01:44:00.254Z,1025.86
2017-09-19T01:45:00.892Z,1025.78
2017-09-19T01:46:01.681Z,1025.69
2017-09-19T01:47:02.319Z,1025.71
2017-09-19T01:48:02.958Z,1025.69
2017-09-19T01:49:03.588Z,1025.71
2017-09-19T01:50:04.226Z,1025.71
2017-09-19T01:51:04.861Z,1025.66
2017-09-19T01:52:05.496Z,1025.71
2017-09-19T01:53:06.136Z,1025.63
2017-09-19T01:54:06.968Z,1025.71
2017-09-19T01:55:07.605Z,1025.71
2017-09-19T01:56:08.240Z,1025.68
2017-09-19T01:57:08.875Z,1025.66
2017-09-19T01:58:09.514Z,1025.64
2017-09-19T01:59:10.148Z,1025.61
2017-09-19T02:00:10.792Z,1025.65
2017-09-19T02:01:11.433Z,1025.57
2017-09-19T02:02:12.470Z,1025.60
2017-09-19T02:03:13.105Z,1025.63
2017-09-19T02:04:13.736Z,1025.61
2017-09-19T02:05:14.376Z,1025.55
2017-09-19T02:06:15.018Z,1025.57
2017-09-19T02:07:15.649Z,1025.54
2017-09-19T02:08:16.282Z,1025.58
2017-09-19T02:09:16.917Z,1025.52
2017-09-19T02:10:17.556Z,1025.63
2017-09-19T02:11:18.388Z,1025.59
2017-09-19T02:13:19.662Z,1025.52
2017-09-19T02:14:20.351Z,1025.44
2017-09-19T02:15:20.981Z,1025.51
2017-09-19T02:16:21.621Z,1025.52
2017-09-19T02:17:22.254Z,1025.56
2017-09-19T02:18:22.888Z,1025.47
2017-09-19T02:19:23.724Z,1025.49
2017-09-19T02:20:24.366Z,1025.49
2017-09-19T02:21:24.997Z,1025.53
2017-09-19T02:22:25.641Z,1025.49
2017-09-19T02:23:26.277Z,1025.53
2017-09-19T02:24:26.906Z,1025.50
2017-09-19T02:25:27.553Z,1025.54
2017-09-19T02:26:28.186Z,1025.52
2017-09-19T02:27:29.017Z,1025.55
2017-09-19T02:28:29.654Z,1025.48
2017-09-19T02:29:30.288Z,1025.45
2017-09-19T02:30:30.928Z,1025.56
2017-09-19T02:31:31.560Z,1025.53
2017-09-19T02:32:32.195Z,1025.53
2017-09-19T02:33:32.831Z,1025.58
2017-09-19T02:34:33.472Z,1025.51
2017-09-19T02:35:34.408Z,1025.51
2017-09-19T02:36:35.039Z,1025.51
2017-09-19T02:37:35.677Z,1025.56
2017-09-19T02:38:36.307Z,1025.51
2017-09-19T02:39:36.942Z,1025.57
2017-09-19T02:40:37.584Z,1025.45
2017-09-19T02:41:38.225Z,1025.51
2017-09-19T02:42:38.864Z,1025.50
2017-09-19T02:43:39.648Z,1025.46
2017-09-19T02:44:40.291Z,1025.46
2017-09-19T02:45:40.925Z,1025.55
2017-09-19T02:46:41.555Z,1025.55
2017-09-19T02:47:42.187Z,1025.47
2017-09-19T02:48:42.828Z,1025.48
2017-09-19T02:49:43.460Z,1025.51
2017-09-19T02:50:44.147Z,1025.42
2017-09-19T02:51:44.798Z,1025.41
2017-09-19T02:52:45.620Z,1025.43
2017-09-19T02:53:46.266Z,1025.36
2017-09-19T02:54:46.897Z,1025.44
2017-09-19T02:55:47.531Z,1025.36
2017-09-19T02:56:48.174Z,1025.39
2017-09-19T02:57:48.804Z,1025.43
2017-09-19T02:58:49.438Z,1025.45
2017-09-19T02:59:50.074Z,1025.45
2017-09-19T03:00:50.909Z,1025.48
2017-09-19T03:01:51.550Z,1025.41
2017-09-19T03:02:52.182Z,1025.44
2017-09-19T03:03:52.824Z,1025.44
2017-09-19T03:04:53.465Z,1025.44
2017-09-19T03:05:54.101Z,1025.44
2017-09-19T03:06:54.738Z,1025.42
2017-09-19T03:07:55.371Z,1025.40
2017-09-19T03:08:56.158Z,1025.50
2017-09-19T03:09:56.791Z,1025.45
2017-09-19T03:10:57.426Z,1025.45
2017-09-19T03:11:58.067Z,1025.44
2017-09-19T03:12:58.700Z,1025.49
2017-09-19T03:13:59.339Z,1025.46
2017-09-19T03:14:59.974Z,1025.45
2017-09-19T03:16:00.607Z,1025.49
2017-09-19T03:17:01.447Z,1025.43
2017-09-19T03:18:02.080Z,1025.50
2017-09-19T03:19:02.711Z,1025.39
2017-09-19T03:20:03.346Z,1025.52
2017-09-19T03:21:03.981Z,1025.55
2017-09-19T03:22:04.619Z,1025.51
2017-09-19T03:23:05.254Z,1025.50
2017-09-19T03:24:05.894Z,1025.53
2017-09-19T03:25:06.531Z,1025.53
2017-09-19T03:26:07.365Z,1025.54
2017-09-19T03:27:08.004Z,1025.54
2017-09-19T03:28:08.640Z,1025.51
2017-09-19T03:29:09.280Z,1025.47
2017-09-19T03:30:09.911Z,1025.49
2017-09-19T03:31:10.545Z,1025.44
2017-09-19T03:32:11.183Z,1025.39
2017-09-19T03:33:11.819Z,1025.41
2017-09-19T03:34:12.451Z,1025.46
2017-09-19T03:35:13.086Z,1025.42
2017-09-19T03:36:13.772Z,1025.42
2017-09-19T03:37:14.408Z,1025.47
2017-09-19T03:38:15.049Z,1025.41
2017-09-19T03:39:15.684Z,1025.46
2017-09-19T03:40:16.371Z,1025.43
2017-09-19T03:41:17.001Z,1025.48
2017-09-19T03:42:17.836Z,1025.48
2017-09-19T03:43:18.476Z,1025.44
2017-09-19T03:44:19.107Z,1025.44
2017-09-19T03:45:19.740Z,1025.50
2017-09-19T03:46:20.380Z,1025.47
2017-09-19T03:47:21.022Z,1025.45
2017-09-19T03:48:21.651Z,1025.46
2017-09-19T03:49:22.291Z,1025.45
2017-09-19T03:50:23.134Z,1025.47
2017-09-19T03:51:23.774Z,1025.47
2017-09-19T03:52:24.403Z,1025.49
2017-09-19T03:53:25.038Z,1025.50
2017-09-19T03:54:25.673Z,1025.49
2017-09-19T03:55:26.311Z,1025.43
2017-09-19T03:56:26.950Z,1025.44
2017-09-19T03:57:27.579Z,1025.43
2017-09-19T03:58:28.233Z,1025.43
2017-09-19T03:59:29.154Z,1025.46
2017-09-19T04:00:29.787Z,1025.46
2017-09-19T04:01:30.423Z,1025.40
2017-09-19T04:02:31.060Z,1025.33
2017-09-19T04:03:31.693Z,1025.36
2017-09-19T04:04:32.328Z,1025.37
2017-09-19T04:05:32.962Z,1025.38
2017-09-19T04:06:33.603Z,1025.38
2017-09-19T04:07:34.433Z,1025.41
2017-09-19T04:08:35.078Z,1025.46
2017-09-19T04:09:35.717Z,1025.41
2017-09-19T04:10:36.350Z,1025.41
2017-09-19T04:11:36.988Z,1025.34
2017-09-19T04:12:37.625Z,1025.41
2017-09-19T04:13:38.265Z,1025.35
2017-09-19T04:14:38.892Z,1025.38
2017-09-19T04:15:39.734Z,1025.32
2017-09-19T04:16:40.365Z,1025.37
2017-09-19T04:17:41.004Z,1025.34
2017-09-19T04:18:41.641Z,1025.33
2017-09-19T04:19:42.279Z,1025.25
2017-09-19T04:20:42.912Z,1025.41
2017-09-19T04:21:43.545Z,1025.34
2017-09-19T04:22:44.180Z,1025.33
2017-09-19T04:23:45.013Z,1025.39
2017-09-19T04:24:45.650Z,1025.35
2017-09-19T04:25:46.284Z,1025.27
2017-09-19T04:26:46.925Z,1025.24
2017-09-19T04:27:47.557Z,1025.25
2017-09-19T04:28:48.192Z,1025.28
2017-09-19T04:29:48.827Z,1025.28
2017-09-19T04:30:49.467Z,1025.28
2017-09-19T04:31:50.309Z,1025.22
2017-09-19T04:32:50.941Z,1025.16
2017-09-19T04:33:51.590Z,1025.16
2017-09-19T04:34:52.211Z,1025.20
2017-09-19T04:35:52.844Z,1025.27
2017-09-19T04:36:53.483Z,1025.25
2017-09-19T04:37:54.113Z,1025.26
2017-09-19T04:38:54.747Z,1025.23
2017-09-19T04:39:55.384Z,1025.23
2017-09-19T04:40:56.220Z,1025.24
2017-09-19T04:41:56.854Z,1025.19
2017-09-19T04:42:57.489Z,1025.18
2017-09-19T04:43:58.125Z,1025.24
2017-09-19T04:44:58.816Z,1025.18
2017-09-19T04:45:59.448Z,1025.22
2017-09-19T04:47:00.084Z,1025.25
2017-09-19T04:48:00.724Z,1025.39
2017-09-19T04:49:01.574Z,1025.26
2017-09-19T04:50:02.193Z,1025.26
2017-09-19T04:51:02.831Z,1025.27
2017-09-19T04:52:03.476Z,1025.27
2017-09-19T04:53:04.113Z,1025.29
2017-09-19T04:54:04.750Z,1025.32
2017-09-19T04:55:05.379Z,1025.35
2017-09-19T04:56:06.014Z,1025.31
2017-09-19T04:57:06.853Z,1025.35
2017-09-19T04:58:07.491Z,1025.31
2017-09-19T04:59:08.122Z,1025.32
2017-09-19T05:00:08.761Z,1025.29
2017-09-19T05:01:09.399Z,1025.29
2017-09-19T05:02:10.035Z,1025.26
2017-09-19T05:03:10.676Z,1025.32
2017-09-19T05:04:11.305Z,1025.26
2017-09-19T05:05:12.140Z,1025.35
2017-09-19T05:06:12.777Z,1025.33
2017-09-19T05:07:13.414Z,1025.28
2017-09-19T05:08:14.100Z,1025.37
2017-09-19T05:09:14.734Z,1025.31
2017-09-19T05:10:15.368Z,1025.27
2017-09-19T05:11:16.003Z,1025.33
2017-09-19T05:12:16.641Z,1025.37
2017-09-19T05:13:17.279Z,1025.31
2017-09-19T05:14:18.110Z,1025.38
2017-09-19T05:15:18.748Z,1025.41
2017-09-19T05:16:19.387Z,1025.34
2017-09-19T05:17:20.019Z,1025.37
2017-09-19T05:18:20.659Z,1025.39
2017-09-19T05:19:21.296Z,1025.35
2017-09-19T05:20:21.927Z,1025.39
2017-09-19T05:21:22.559Z,1025.37
2017-09-19T05:22:23.344Z,1025.33
2017-09-19T05:23:23.985Z,1025.30
2017-09-19T05:24:24.618Z,1025.31
2017-09-19T05:25:25.251Z,1025.36
2017-09-19T05:26:25.886Z,1025.36
2017-09-19T05:27:26.521Z,1025.36
2017-09-19T05:28:27.156Z,1025.41
2017-09-19T05:29:27.789Z,1025.33
2017-09-19T05:30:28.824Z,1025.33
2017-09-19T05:31:29.458Z,1025.24
2017-09-19T05:32:30.091Z,1025.25
2017-09-19T05:33:30.727Z,1025.29
2017-09-19T05:34:31.317Z,1025.29
2017-09-19T05:35:31.954Z,1025.24
2017-09-19T05:36:32.591Z,1025.23
2017-09-19T05:37:33.230Z,1025.36
2017-09-19T05:38:34.016Z,1025.35
2017-09-19T05:39:34.651Z,1025.28
2017-09-19T05:40:35.286Z,1025.33
2017-09-19T05:41:35.919Z,1025.29
2017-09-19T05:42:36.559Z,1025.36
2017-09-19T05:43:37.198Z,1025.30
2017-09-19T05:44:37.832Z,1025.34
2017-09-19T05:45:38.471Z,1025.38
2017-09-19T05:46:39.358Z,1025.34
2017-09-19T05:47:39.991Z,1025.38
2017-09-19T05:48:40.628Z,1025.38
2017-09-19T05:49:41.262Z,1025.40
2017-09-19T05:50:41.903Z,1025.39
2017-09-19T05:51:42.533Z,1025.39
2017-09-19T05:52:43.167Z,1025.44
2017-09-19T05:53:43.812Z,1025.38
2017-09-19T05:54:44.446Z,1025.38
2017-09-19T05:55:45.334Z,1025.32
2017-09-19T05:56:45.972Z,1025.43
2017-09-19T05:57:46.612Z,1025.36
2017-09-19T05:58:47.246Z,1025.30
2017-09-19T05:59:47.880Z,1025.32
2017-09-19T06:00:48.513Z,1025.37
2017-09-19T06:01:49.153Z,1025.38
2017-09-19T06:02:49.791Z,1025.33
2017-09-19T06:03:50.572Z,1025.37
2017-09-19T06:04:51.205Z,1025.37
2017-09-19T06:05:51.846Z,1025.37
2017-09-19T06:06:52.481Z,1025.36
2017-09-19T06:07:53.120Z,1025.38
2017-09-19T06:08:53.755Z,1025.42
2017-09-19T06:09:54.388Z,1025.35
2017-09-19T06:10:55.022Z,1025.43
2017-09-19T06:11:55.809Z,1025.42
2017-09-19T06:12:56.443Z,1025.39
2017-09-19T06:13:57.029Z,1025.49
2017-09-19T06:14:57.664Z,1025.46
2017-09-19T06:15:58.299Z,1025.49
2017-09-19T06:16:58.937Z,1025.47
2017-09-19T06:17:59.580Z,1025.51
2017-09-19T06:19:00.215Z,1025.51
2017-09-19T06:20:01.052Z,1025.54
2017-09-19T06:21:01.691Z,1025.54
2017-09-19T06:22:02.327Z,1025.56
2017-09-19T06:23:02.960Z,1025.53
2017-09-19T06:24:03.592Z,1025.52
2017-09-19T06:25:04.229Z,1025.58
2017-09-19T06:26:04.861Z,1025.53
2017-09-19T06:27:05.502Z,1025.56
2017-09-19T06:28:06.133Z,1025.58
2017-09-19T06:29:06.918Z,1025.61
2017-09-19T06:30:07.554Z,1025.55
2017-09-19T06:31:08.194Z,1025.51
2017-09-19T06:32:08.832Z,1025.59
2017-09-19T06:33:09.464Z,1025.59
2017-09-19T06:34:10.098Z,1025.59
2017-09-19T06:35:10.731Z,1025.63
2017-09-19T06:36:11.373Z,1025.59
2017-09-19T06:37:12.206Z,1025.63
2017-09-19T06:38:12.840Z,1025.58
2017-09-19T06:39:13.477Z,1025.62
2017-09-19T06:40:14.110Z,1025.65
2017-09-19T06:41:14.747Z,1025.63
2017-09-19T06:42:15.376Z,1025.69
2017-09-19T06:43:16.019Z,1025.69
2017-09-19T06:44:16.654Z,1025.73
2017-09-19T06:45:17.536Z,1025.71
2017-09-19T06:46:18.177Z,1025.68
2017-09-19T06:47:18.814Z,1025.71
2017-09-19T06:48:19.406Z,1025.85
2017-09-19T06:49:20.035Z,1025.80
2017-09-19T06:50:20.668Z,1025.73
2017-09-19T06:51:21.305Z,1025.73
2017-09-19T06:52:21.940Z,1025.70
2017-09-19T06:53:22.786Z,1025.78
2017-09-19T06:54:23.411Z,1025.69
2017-09-19T06:55:24.048Z,1025.77
2017-09-19T06:56:24.683Z,1025.86
2017-09-19T06:57:25.322Z,1025.85
2017-09-19T06:58:25.954Z,1025.80
2017-09-19T06:59:26.589Z,1025.75
2017-09-19T07:00:27.227Z,1025.84
2017-09-19T07:01:28.068Z,1025.80
2017-09-19T07:02:28.701Z,1025.84
2017-09-19T07:03:29.338Z,1025.86
2017-09-19T07:04:29.975Z,1025.81
2017-09-19T07:05:30.609Z,1025.75
2017-09-19T07:06:31.242Z,1025.85
2017-09-19T07:07:31.874Z,1025.81
2017-09-19T07:08:32.519Z,1025.86
2017-09-19T07:09:33.154Z,1025.89
2017-09-19T07:10:33.939Z,1025.95
2017-09-19T07:11:34.584Z,1025.91
2017-09-19T07:12:35.216Z,1025.95
2017-09-19T07:13:35.847Z,1025.90
2017-09-19T07:14:36.481Z,1025.86
2017-09-19T07:15:37.126Z,1025.97
2017-09-19T07:16:37.758Z,1025.91
2017-09-19T07:17:38.394Z,1025.94
2017-09-19T07:18:39.230Z,1026.02
2017-09-19T07:19:39.861Z,1026.02
2017-09-19T07:20:40.502Z,1025.97
2017-09-19T07:21:41.137Z,1026.04
2017-09-19T07:22:41.773Z,1025.97
2017-09-19T07:23:42.411Z,1026.05
2017-09-19T07:24:43.049Z,1026.05
2017-09-19T07:25:43.678Z,1026.04
2017-09-19T07:26:44.475Z,1026.05
2017-09-19T07:27:45.106Z,1026.00
2017-09-19T07:28:45.738Z,1026.15
2017-09-19T07:29:46.372Z,1026.12
2017-09-19T07:30:47.010Z,1026.14
2017-09-19T07:31:47.651Z,1026.17
2017-09-19T07:32:48.283Z,1026.11
2017-09-19T07:34:32.416Z,1026.11
2017-09-19T07:35:33.257Z,1026.10
2017-09-19T07:36:33.894Z,1026.11
2017-09-19T07:37:34.526Z,1026.09
2017-09-19T07:38:35.170Z,1026.13
2017-09-19T07:39:35.853Z,1026.16
2017-09-19T07:40:36.492Z,1026.13
2017-09-19T07:41:37.123Z,1026.10
2017-09-19T07:42:37.757Z,1026.13
2017-09-19T07:43:38.598Z,1026.23
2017-09-19T07:44:39.229Z,1026.18
2017-09-19T07:45:39.870Z,1026.23
2017-09-19T07:46:40.506Z,1026.19
2017-09-19T07:47:41.141Z,1026.23
2017-09-19T07:48:41.778Z,1026.28
2017-09-19T07:49:42.415Z,1026.27
2017-09-19T07:50:43.051Z,1026.24
2017-09-19T07:51:43.986Z,1026.29
2017-09-19T07:52:44.626Z,1026.26
2017-09-19T07:53:45.262Z,1026.31
2017-09-19T07:54:45.894Z,1026.31
2017-09-19T07:55:46.527Z,1026.28
2017-09-19T07:56:47.162Z,1026.31
2017-09-19T07:57:47.806Z,1026.38
2017-09-19T07:58:48.440Z,1026.33
2017-09-19T07:59:49.278Z,1026.28
2017-09-19T08:00:49.917Z,1026.33
2017-09-19T08:01:50.552Z,1026.40
2017-09-19T08:02:51.182Z,1026.39
2017-09-19T08:03:51.817Z,1026.37
2017-09-19T08:04:52.453Z,1026.43
2017-09-19T08:05:53.093Z,1026.35
2017-09-19T08:06:53.725Z,1026.43
2017-09-19T08:07:54.563Z,1026.45
2017-09-19T08:08:55.195Z,1026.46
2017-09-19T08:09:55.832Z,1026.37
2017-09-19T08:10:56.465Z,1026.47
2017-09-19T08:11:57.107Z,1026.48
2017-09-19T08:12:57.736Z,1026.44
2017-09-19T08:13:58.373Z,1026.56
2017-09-19T08:14:59.003Z,1026.43
2017-09-19T08:15:59.651Z,1026.48
2017-09-19T08:17:00.477Z,1026.49
2017-09-19T08:18:01.119Z,1026.52
2017-09-19T08:19:01.756Z,1026.56
2017-09-19T08:20:02.400Z,1026.50
2017-09-19T08:21:03.094Z,1026.51
2017-09-19T08:22:03.779Z,1026.57
2017-09-19T08:23:04.419Z,1026.49
2017-09-19T08:24:05.051Z,1026.58
2017-09-19T08:25:05.835Z,1026.60
2017-09-19T08:26:06.474Z,1026.60
2017-09-19T08:27:07.110Z,1026.59
2017-09-19T08:28:07.745Z,1026.57
2017-09-19T08:29:08.377Z,1026.64
2017-09-19T08:30:09.017Z,1026.63
2017-09-19T08:31:09.654Z,1026.59
2017-09-19T08:32:10.285Z,1026.57
2017-09-19T08:33:11.227Z,1026.61
2017-09-19T08:34:11.859Z,1026.57
2017-09-19T08:35:12.492Z,1026.54
2017-09-19T08:36:13.129Z,1026.66
2017-09-19T08:37:13.763Z,1026.58
2017-09-19T08:38:14.406Z,1026.67
2017-09-19T08:39:15.036Z,1026.67
2017-09-19T08:40:15.688Z,1026.60
2017-09-19T08:41:16.482Z,1026.71
2017-09-19T08:42:17.156Z,1026.75
2017-09-19T08:43:17.792Z,1026.72
2017-09-19T08:44:18.425Z,1026.72
2017-09-19T08:45:19.065Z,1026.70
2017-09-19T08:46:19.704Z,1026.72
2017-09-19T08:47:20.338Z,1026.73
2017-09-19T08:48:20.977Z,1026.68
2017-09-19T08:49:21.611Z,1026.67
2017-09-19T08:50:22.551Z,1026.71
2017-09-19T08:51:23.191Z,1026.74
2017-09-19T08:52:23.834Z,1026.76
2017-09-19T08:53:24.460Z,1026.78
2017-09-19T08:54:25.150Z,1026.80
2017-09-19T08:55:25.789Z,1026.85
2017-09-19T08:56:26.421Z,1026.84
2017-09-19T08:57:27.057Z,1026.84
2017-09-19T08:58:27.898Z,1026.87
2017-09-19T08:59:28.531Z,1026.80
2017-09-19T09:00:29.167Z,1026.80
2017-09-19T09:01:29.803Z,1026.80
2017-09-19T09:02:30.442Z,1026.83
2017-09-19T09:03:31.085Z,1026.89
2017-09-19T09:04:31.712Z,1026.90
2017-09-19T09:05:32.361Z,1026.85
2017-09-19T09:06:33.154Z,1026.89
2017-09-19T09:07:33.787Z,1026.93
2017-09-19T09:08:34.432Z,1026.84
2017-09-19T09:09:35.061Z,1026.81
2017-09-19T09:10:35.706Z,1026.84
2017-09-19T09:11:36.336Z,1026.87
2017-09-19T09:12:36.973Z,1026.89
2017-09-19T09:13:37.608Z,1026.81
2017-09-19T09:14:38.551Z,1026.89
2017-09-19T09:15:39.181Z,1026.93
2017-09-19T09:16:39.823Z,1026.88
2017-09-19T09:17:40.455Z,1026.91
2017-09-19T09:18:41.099Z,1026.91
2017-09-19T09:19:41.780Z,1026.91
2017-09-19T09:20:42.429Z,1026.98
2017-09-19T09:21:43.058Z,1026.97
2017-09-19T09:22:43.893Z,1026.89
2017-09-19T09:23:44.541Z,1026.92
2017-09-19T09:24:45.226Z,1026.94
2017-09-19T09:25:45.923Z,1026.98
2017-09-19T09:26:46.553Z,1026.93
2017-09-19T09:27:47.195Z,1026.97
2017-09-19T09:28:47.832Z,1026.98
2017-09-19T09:29:48.471Z,1027.03
2017-09-19T09:30:49.109Z,1027.02
2017-09-19T09:31:49.953Z,1026.93
2017-09-19T09:32:50.651Z,1026.99
2017-09-19T09:33:51.281Z,1026.96
2017-09-19T09:34:51.923Z,1026.98
2017-09-19T09:35:52.558Z,1027.03
2017-09-19T09:36:53.189Z,1027.07
2017-09-19T09:37:53.826Z,1026.98
2017-09-19T09:38:54.465Z,1026.99
2017-09-19T09:39:55.298Z,1027.00
2017-09-19T09:40:55.940Z,1027.07
2017-09-19T09:41:56.572Z,1027.13
2017-09-19T09:42:57.210Z,1027.01
2017-09-19T09:43:57.849Z,1027.01
2017-09-19T09:44:58.485Z,1027.03
2017-09-19T09:45:59.130Z,1027.03
2017-09-19T09:46:59.768Z,1027.08
2017-09-19T09:48:00.546Z,1027.08
2017-09-19T09:49:01.187Z,1027.03
2017-09-19T09:50:01.820Z,1027.11
2017-09-19T09:51:02.455Z,1027.01
2017-09-19T09:52:03.089Z,1027.07
2017-09-19T09:53:03.726Z,1027.08
2017-09-19T09:54:04.361Z,1027.14
2017-09-19T09:55:05.002Z,1027.19
2017-09-19T09:56:05.885Z,1027.12
2017-09-19T09:57:06.522Z,1027.07
2017-09-19T09:58:07.159Z,1027.11
2017-09-19T09:59:07.792Z,1027.10
2017-09-19T10:00:08.383Z,1027.14
2017-09-19T10:01:09.017Z,1027.15
2017-09-19T10:02:09.653Z,1027.10
2017-09-19T10:03:10.289Z,1027.10
2017-09-19T10:04:10.923Z,1027.16
2017-09-19T10:05:11.861Z,1027.16
2017-09-19T10:06:12.495Z,1027.16
2017-09-19T10:07:13.148Z,1027.14
2017-09-19T10:08:13.792Z,1027.13
2017-09-19T10:09:14.422Z,1027.14
2017-09-19T10:10:15.052Z,1027.13
2017-09-19T10:11:15.697Z,1027.08
2017-09-19T10:12:16.338Z,1027.11
2017-09-19T10:13:17.273Z,1027.09
2017-09-19T10:14:17.906Z,1027.14
2017-09-19T10:15:18.547Z,1027.14
2017-09-19T10:16:19.180Z,1027.18
2017-09-19T10:17:19.821Z,1027.17
2017-09-19T10:18:20.454Z,1027.16
2017-09-19T10:19:21.045Z,1027.19
2017-09-19T10:20:22.229Z,1027.16
2017-09-19T10:21:23.064Z,1027.22
2017-09-19T10:22:23.701Z,1027.23
2017-09-19T10:23:24.335Z,1027.29
2017-09-19T10:24:24.972Z,1027.19
2017-09-19T10:25:25.616Z,1027.21
2017-09-19T10:26:26.256Z,1027.15
2017-09-19T10:27:26.890Z,1027.21
2017-09-19T10:28:27.524Z,1027.20
2017-09-19T10:29:28.365Z,1027.15
2017-09-19T10:30:29.000Z,1027.19
2017-09-19T10:31:29.655Z,1027.24
2017-09-19T10:32:30.290Z,1027.20
2017-09-19T10:33:30.924Z,1027.19
2017-09-19T10:34:31.564Z,1027.13
2017-09-19T10:35:32.206Z,1027.17
2017-09-19T10:36:32.847Z,1027.13
2017-09-19T10:37:33.676Z,1027.11
2017-09-19T10:38:34.318Z,1027.12
2017-09-19T10:39:34.949Z,1027.08
2017-09-19T10:40:35.590Z,1027.12
2017-09-19T10:41:36.230Z,1027.16
2017-09-19T10:42:36.870Z,1027.03
2017-09-19T10:43:37.502Z,1027.14
2017-09-19T10:44:38.135Z,1027.13
2017-09-19T10:45:38.777Z,1027.03
2017-09-19T10:46:39.567Z,1027.06
2017-09-19T10:47:40.201Z,1027.07
2017-09-19T10:48:40.846Z,1027.05
2017-09-19T10:49:41.487Z,1027.00
2017-09-19T10:50:42.124Z,1027.02
2017-09-19T10:51:42.758Z,1026.98
2017-09-19T10:52:43.393Z,1026.98
2017-09-19T10:53:44.033Z,1027.05
2017-09-19T10:54:44.872Z,1026.98
2017-09-19T10:55:45.504Z,1026.94
2017-09-19T10:56:46.140Z,1026.95
2017-09-19T10:57:46.776Z,1026.97
2017-09-19T10:58:47.416Z,1026.92
2017-09-19T10:59:48.050Z,1026.97
2017-09-19T11:00:48.685Z,1026.90
2017-09-19T11:01:49.325Z,1026.91
2017-09-19T11:02:50.166Z,1026.82
2017-09-19T11:03:50.797Z,1026.98
2017-09-19T11:04:51.434Z,1026.85
2017-09-19T11:05:52.071Z,1026.86
2017-09-19T11:06:52.707Z,1026.90
2017-09-19T11:07:53.347Z,1026.95
2017-09-19T11:08:53.983Z,1026.92
2017-09-19T11:09:54.623Z,1026.89
2017-09-19T11:10:55.406Z,1026.90
2017-09-19T11:11:56.045Z,1026.83
2017-09-19T11:12:56.682Z,1026.89
2017-09-19T11:13:57.325Z,1026.87
2017-09-19T11:14:57.959Z,1026.86
2017-09-19T11:15:58.590Z,1026.92
2017-09-19T11:16:59.232Z,1026.83
2017-09-19T11:17:59.864Z,1026.81
2017-09-19T11:19:00.501Z,1026.84
2017-09-19T11:20:01.345Z,1026.86
2017-09-19T11:21:01.980Z,1026.86
2017-09-19T11:22:02.614Z,1026.90
2017-09-19T11:23:03.254Z,1026.82
2017-09-19T11:24:03.886Z,1026.92
2017-09-19T11:25:04.524Z,1026.78
2017-09-19T11:26:05.157Z,1026.85
2017-09-19T11:27:05.795Z,1026.85
2017-09-19T11:28:06.635Z,1026.79
2017-09-19T11:29:07.271Z,1026.86
2017-09-19T11:30:07.907Z,1026.84
2017-09-19T11:31:08.546Z,1026.91
2017-09-19T11:32:09.185Z,1026.81
2017-09-19T11:33:09.835Z,1026.81
2017-09-19T11:34:10.483Z,1026.80
2017-09-19T11:35:11.132Z,1026.81
2017-09-19T11:36:12.037Z,1026.81
2017-09-19T11:37:12.679Z,1026.81
2017-09-19T11:38:13.335Z,1026.81
2017-09-19T11:39:13.974Z,1026.79
2017-09-19T11:40:14.623Z,1026.75
2017-09-19T11:41:15.272Z,1026.69
2017-09-19T11:42:15.916Z,1026.78
2017-09-19T11:43:16.568Z,1026.71
2017-09-19T11:44:17.461Z,1026.74
2017-09-19T11:45:18.110Z,1026.77
2017-09-19T11:46:18.756Z,1026.69
2017-09-19T11:47:19.402Z,1026.76
2017-09-19T11:48:20.048Z,1026.76
2017-09-19T11:49:20.699Z,1026.78
2017-09-19T11:50:21.342Z,1026.77
2017-09-19T11:51:21.986Z,1026.65
2017-09-19T11:52:22.832Z,1026.72
2017-09-19T11:53:23.482Z,1026.61
2017-09-19T11:54:24.128Z,1026.61
2017-09-19T11:55:24.782Z,1026.56
2017-09-19T11:56:25.427Z,1026.60
2017-09-19T11:57:26.073Z,1026.58
2017-09-19T11:58:26.718Z,1026.52
2017-09-19T11:59:27.363Z,1026.61
2017-09-19T12:00:28.010Z,1026.54
2017-09-19T12:01:28.857Z,1026.56
2017-09-19T12:02:29.508Z,1026.59
2017-09-19T12:03:30.153Z,1026.51
2017-09-19T12:04:30.797Z,1026.57
2017-09-19T12:05:31.454Z,1026.57
2017-09-19T12:06:32.106Z,1026.57
2017-09-19T12:07:32.759Z,1026.62
2017-09-19T12:08:33.405Z,1026.55
2017-09-19T12:09:34.209Z,1026.60
2017-09-19T12:10:34.851Z,1026.55
2017-09-19T12:11:35.503Z,1026.62
2017-09-19T12:12:36.151Z,1026.63
2017-09-19T12:13:36.800Z,1026.60
2017-09-19T12:14:37.448Z,1026.55
2017-09-19T12:15:38.097Z,1026.58